Time;durP1;ratioP1;P1;durP2;ratioP2;P2;SDS_P1;SDS_P2;PMS_P1;PMS_P2;Temp;Humidity;BMP_temperature;BMP_pressure;BME280_temperature;BME280_humidity;BME280_pressure;Samples;Min_cycle;Max_cycle;Signal;HPM_P1;HPM_P2
2022/11/01 00:01:58;;;;;;;12.10;5.45;;;11.90;99.90;;;11.52;100.00;97232.22;4967924;28;20169;-48
2022/11/01 00:04:24;;;;;;;6.90;4.80;;;11.90;99.90;;;11.55;100.00;97223.31;4990129;22;20094;-58
2022/11/01 00:06:51;;;;;;;9.45;5.07;;;11.90;99.90;;;11.56;100.00;97228.53;4967014;28;20085;-57
2022/11/01 00:09:17;;;;;;;7.65;4.95;;;11.90;99.90;;;11.57;100.00;97226.72;4966290;28;20038;-58
2022/11/01 00:11:42;;;;;;;8.80;4.88;;;11.90;99.90;;;11.58;100.00;97217.91;4970394;28;20038;-58
2022/11/01 00:14:12;;;;;;;10.82;4.82;;;12.00;99.90;;;11.59;100.00;97215.19;4985298;28;20058;-58
2022/11/01 00:16:38;;;;;;;7.50;4.82;;;12.00;99.90;;;11.59;100.00;97214.31;4983045;28;20165;-58
2022/11/01 00:19:04;;;;;;;7.60;4.53;;;12.00;99.90;;;11.59;100.00;97207.28;4971890;28;20486;-58
2022/11/01 00:21:30;;;;;;;7.75;4.25;;;12.00;99.90;;;11.60;100.00;97206.31;4968999;28;20054;-58
2022/11/01 00:23:55;;;;;;;9.07;4.90;;;12.00;99.90;;;11.61;100.00;97213.34;4968661;28;20118;-58
2022/11/01 00:26:23;;;;;;;7.75;4.15;;;12.00;99.90;;;11.62;100.00;97204.47;4969998;28;20259;-58
2022/11/01 00:28:49;;;;;;;8.00;4.40;;;12.00;99.90;;;11.63;100.00;97208.00;4969505;28;20347;-59
2022/11/01 00:31:17;;;;;;;8.02;4.68;;;12.00;99.90;;;11.63;100.00;97200.91;4969544;28;20030;-58
2022/11/01 00:33:43;;;;;;;6.82;4.20;;;12.00;99.90;;;11.68;100.00;97202.50;4970295;28;20023;-59
2022/11/01 00:36:10;;;;;;;7.68;4.10;;;12.10;99.90;;;11.73;100.00;97206.63;4970991;28;20183;-58
2022/11/01 00:38:36;;;;;;;8.75;4.78;;;12.10;99.90;;;11.79;100.00;97210.78;4970992;28;20069;-59
2022/11/01 00:41:02;;;;;;;8.20;4.38;;;12.20;99.90;;;11.84;100.00;97211.44;4969631;28;20040;-59
2022/11/01 00:43:33;;;;;;;6.05;4.57;;;12.20;99.90;;;11.88;100.00;97213.03;4965464;28;20066;-58
2022/11/01 00:45:59;;;;;;;7.10;4.88;;;12.20;99.90;;;11.90;100.00;97216.50;4966005;28;20061;-58
2022/11/01 00:48:25;;;;;;;8.98;4.97;;;12.30;99.90;;;11.91;100.00;97220.84;4965541;28;20027;-58
2022/11/01 00:50:51;;;;;;;9.85;4.82;;;12.30;99.90;;;11.89;100.00;97221.81;4962412;28;20053;-58
2022/11/01 00:53:17;;;;;;;9.23;4.97;;;12.30;99.90;;;11.87;100.00;97215.75;4966926;28;20058;-59
2022/11/01 00:55:43;;;;;;;9.68;5.00;;;12.30;99.90;;;11.82;100.00;97214.16;4963614;28;20045;-58
2022/11/01 00:58:09;;;;;;;8.07;4.78;;;12.20;99.90;;;11.79;100.00;97210.78;4969446;28;20026;-58
2022/11/01 01:00:35;;;;;;;10.00;5.85;;;12.20;99.90;;;11.72;100.00;97210.22;4963199;28;20413;-58
2022/11/01 01:03:04;;;;;;;8.98;5.05;;;12.20;99.90;;;11.70;100.00;97206.78;4968586;28;20397;-58
2022/11/01 01:05:30;;;;;;;10.43;5.35;;;12.20;99.90;;;11.71;100.00;97212.94;4968375;28;20489;-58
2022/11/01 01:07:56;;;;;;;7.53;4.80;;;12.10;99.90;;;11.70;100.00;97211.19;4972183;28;20046;-58
2022/11/01 01:10:23;;;;;;;8.30;5.10;;;12.10;99.90;;;11.70;100.00;97222.66;4967485;28;20038;-59
2022/11/01 01:12:48;;;;;;;9.88;4.90;;;12.10;99.90;;;11.69;100.00;97220.91;4966812;28;21155;-59
2022/11/01 01:15:14;;;;;;;9.25;5.30;;;12.10;99.90;;;11.67;100.00;97211.34;4967024;28;20103;-59
2022/11/01 01:17:40;;;;;;;9.02;5.32;;;12.10;99.90;;;11.67;100.00;97211.34;4967242;28;20038;-59
2022/11/01 01:20:07;;;;;;;9.80;5.18;;;12.10;99.90;;;11.65;100.00;97212.28;4968537;28;20112;-59
2022/11/01 01:22:32;;;;;;;9.50;5.38;;;12.10;99.90;;;11.68;100.00;97205.13;4961862;28;20980;-59
2022/11/01 01:24:58;;;;;;;13.30;5.40;;;12.10;99.90;;;11.69;100.00;97191.00;4962085;28;20018;-59
2022/11/01 01:27:24;;;;;;;10.50;4.72;;;12.10;99.90;;;11.74;100.00;97203.09;4966445;28;20053;-59
2022/11/01 01:29:50;;;;;;;8.07;4.28;;;12.20;99.90;;;11.75;100.00;97212.69;4972562;28;20691;-60
2022/11/01 01:32:21;;;;;;;7.22;4.35;;;12.20;99.90;;;11.75;100.00;97207.41;4976171;28;20070;-59
2022/11/01 01:34:47;;;;;;;9.45;4.47;;;12.20;99.90;;;11.76;100.00;97200.38;4967961;28;20042;-59
2022/11/01 01:37:14;;;;;;;9.10;4.18;;;12.20;99.90;;;11.70;100.00;97192.72;4970559;28;20033;-59
2022/11/01 01:39:40;;;;;;;6.63;4.20;;;12.20;99.90;;;11.72;100.00;97194.38;4966490;28;20039;-59
2022/11/01 01:42:33;;;;;;;10.65;4.32;;;12.20;99.90;;;11.72;100.00;97188.22;4966323;28;20038;-59
2022/11/01 01:44:59;;;;;;;6.25;3.88;;;12.20;99.90;;;11.73;100.00;97196.06;4965538;28;20046;-59
2022/11/01 01:47:30;;;;;;;11.05;4.50;;;12.20;99.90;;;11.76;100.00;97192.44;4964407;28;20771;-59
2022/11/01 01:50:17;;;;;;;9.25;4.53;;;12.20;99.90;;;11.80;100.00;97196.66;4971823;28;20052;-59
2022/11/01 01:53:05;;;;;;;12.40;4.85;;;12.20;99.90;;;11.85;100.00;97189.38;4981215;28;20037;-61
2022/11/01 01:55:40;;;;;;;15.32;4.28;;;12.30;99.90;;;11.92;100.00;97196.16;4969061;28;20318;-59
2022/11/01 01:58:09;;;;;;;8.77;4.13;;;12.30;99.90;;;11.96;100.00;97186.28;4971501;28;20442;-59
2022/11/01 02:00:35;;;;;;;8.00;3.97;;;12.40;99.90;;;11.99;100.00;97179.06;4988597;28;20042;-59
2022/11/01 02:03:01;;;;;;;6.00;3.92;;;12.50;99.90;;;12.11;100.00;97196.13;4964831;28;20038;-59
2022/11/01 02:05:57;;;;;;;7.03;4.05;;;12.50;99.90;;;12.17;100.00;97202.94;4970625;28;20039;-59
2022/11/01 02:08:26;;;;;;;7.50;4.07;;;12.50;99.90;;;12.24;100.00;97212.31;4971465;28;20719;-59
2022/11/01 02:10:59;;;;;;;16.60;5.20;;;12.60;99.90;;;12.30;100.00;97212.00;4971406;28;20058;-60
2022/11/01 02:13:25;;;;;;;13.02;5.47;;;12.70;99.90;;;12.36;100.00;97205.56;4965871;28;20545;-59
2022/11/01 02:16:34;;;;;;;12.13;4.18;;;12.70;99.90;;;12.45;100.00;97202.47;4953973;28;20066;-60
2022/11/01 02:19:20;;;;;;;13.73;4.97;;;12.80;99.90;;;12.52;100.00;97211.00;4969053;28;20505;-60
2022/11/01 02:22:09;;;;;;;11.65;4.90;;;12.90;99.90;;;12.51;100.00;97188.13;4967031;28;20034;-59
2022/11/01 02:25:03;;;;;;;8.15;4.30;;;13.00;99.90;;;12.63;100.00;97198.09;4966995;28;20040;-59
2022/11/01 02:27:56;;;;;;;12.15;4.72;;;13.00;99.90;;;12.64;100.00;97199.81;4964107;28;20047;-59
2022/11/01 02:30:23;;;;;;;7.60;4.22;;;13.00;99.90;;;12.67;100.00;97202.34;4971030;28;20069;-59
2022/11/01 02:33:30;;;;;;;9.60;4.57;;;13.10;99.90;;;12.69;100.00;97203.13;4967641;28;20062;-59
2022/11/01 02:36:09;;;;;;;8.75;4.70;;;13.10;99.90;;;12.66;100.00;97192.66;4971166;28;20504;-60
2022/11/01 02:38:47;;;;;;;7.90;3.85;;;13.10;99.90;;;12.73;100.00;97199.38;4969800;28;20382;-60
2022/11/01 02:41:38;;;;;;;9.27;4.28;;;13.10;99.90;;;12.76;100.00;97198.38;4967655;28;20030;-60
2022/11/01 02:44:11;;;;;;;6.43;3.95;;;13.10;99.90;;;12.78;100.00;97209.75;4966222;28;20038;-60
2022/11/01 02:49:28;;;;;;;7.60;4.22;;;13.20;99.90;;;12.79;100.00;97214.97;4973413;28;20088;-60
2022/11/01 02:51:56;;;;;;;11.02;4.00;;;13.20;99.90;;;12.66;100.00;97197.13;4981358;28;20061;-60
2022/11/01 02:54:37;;;;;;;10.05;4.38;;;13.20;99.90;;;12.82;100.00;97227.19;4985805;28;20121;-59
2022/11/01 02:57:33;;;;;;;7.47;4.20;;;13.20;99.90;;;12.85;100.00;97226.16;4961792;28;20168;-60
2022/11/01 03:00:03;;;;;;;10.43;4.63;;;13.20;99.90;;;12.85;100.00;97221.75;4968014;28;20771;-60
2022/11/01 03:02:40;;;;;;;12.93;4.30;;;13.20;99.90;;;12.86;100.00;97222.59;4958774;28;20215;-60
2022/11/01 03:05:45;;;;;;;10.02;4.25;;;13.20;99.90;;;12.87;100.00;97217.22;4979773;28;20027;-60
2022/11/01 03:08:18;;;;;;;9.98;4.60;;;13.30;99.90;;;12.83;100.00;97206.84;4962572;28;20061;-60
2022/11/01 03:11:13;;;;;;;9.73;3.85;;;13.30;99.90;;;12.88;100.00;97220.72;4968870;28;20371;-59
2022/11/01 03:14:04;;;;;;;5.15;3.70;;;13.30;99.90;;;12.87;100.00;97216.38;4967140;28;20482;-60
2022/11/01 03:16:42;;;;;;;7.20;4.05;;;13.20;99.90;;;12.86;100.00;97222.59;4964413;28;20042;-60
2022/11/01 03:19:28;;;;;;;8.93;4.00;;;13.20;99.90;;;12.89;100.00;97225.09;4951484;28;20409;-60
2022/11/01 03:22:23;;;;;;;8.80;4.05;;;13.20;99.90;;;12.90;100.00;97226.78;4958530;28;20064;-60
2022/11/01 03:28:11;;;;;;;7.88;3.53;;;13.30;99.90;;;12.90;100.00;97250.63;4966666;28;20895;-61
2022/11/01 03:30:43;;;;;;;6.05;3.38;;;13.30;99.90;;;12.88;100.00;97244.56;4969137;28;20578;-60
2022/11/01 03:33:12;;;;;;;5.32;3.08;;;13.30;99.90;;;12.86;100.00;97243.78;4989722;28;20101;-61
2022/11/01 03:35:39;;;;;;;7.18;3.90;;;13.20;99.90;;;12.84;100.00;97240.34;4967922;28;20039;-60
2022/11/01 03:38:13;;;;;;;7.20;3.20;;;13.20;99.90;;;12.80;100.00;97243.13;4969828;28;23798;-60
2022/11/01 03:40:47;;;;;;;5.32;3.13;;;13.20;99.90;;;12.87;100.00;97253.44;4964005;28;20185;-61
2022/11/01 03:43:16;;;;;;;7.97;3.42;;;13.20;99.90;;;12.90;100.00;97259.44;4968222;28;20097;-61
2022/11/01 03:45:42;;;;;;;8.32;3.40;;;13.30;99.90;;;12.94;100.00;97262.78;4970917;28;20454;-60
2022/11/01 03:48:09;;;;;;;7.55;3.15;;;13.30;99.90;;;12.94;100.00;97260.16;4972606;28;20113;-60
2022/11/01 03:50:35;;;;;;;6.60;3.20;;;13.40;99.90;;;12.91;100.00;97260.28;4969447;28;20037;-60
2022/11/01 03:53:01;;;;;;;5.45;2.95;;;13.40;99.90;;;13.01;100.00;97269.50;4968494;28;20085;-60
2022/11/01 03:55:26;;;;;;;6.57;3.30;;;13.40;99.90;;;13.02;100.00;97273.84;4970226;28;20068;-61
2022/11/01 03:57:58;;;;;;;9.25;3.35;;;13.40;99.90;;;13.05;100.00;97267.56;4970989;28;20038;-61
2022/11/01 04:00:31;;;;;;;8.15;3.67;;;13.40;99.90;;;13.10;100.00;97277.00;4969609;28;20038;-61
2022/11/01 04:02:58;;;;;;;6.68;3.10;;;13.50;99.90;;;13.20;100.00;97281.81;4965636;28;20508;-61
2022/11/01 04:05:27;;;;;;;4.80;2.80;;;13.60;99.90;;;13.25;100.00;97287.75;4982153;28;20035;-61
2022/11/01 04:07:54;;;;;;;10.40;2.97;;;13.60;99.90;;;13.40;100.00;97294.97;4969352;28;20058;-61
2022/11/01 04:10:22;;;;;;;7.75;2.90;;;13.70;99.90;;;13.47;100.00;97300.81;4967673;28;20030;-61
2022/11/01 04:12:49;;;;;;;9.80;2.90;;;13.80;99.90;;;13.60;100.00;97306.34;4971265;28;21997;-61
2022/11/01 04:21:09;;;;;;;9.00;3.05;;;14.10;99.90;;;13.88;100.00;97301.34;4970360;28;20049;-61
2022/11/01 04:23:35;;;;;;;7.47;3.35;;;14.30;99.90;;;13.92;100.00;97297.59;4970496;28;20173;-61
2022/11/01 04:26:02;;;;;;;6.95;2.75;;;14.30;99.90;;;14.00;100.00;97305.16;4966817;28;20490;-61
2022/11/01 04:28:28;;;;;;;9.10;2.95;;;14.30;99.90;;;14.01;100.00;97306.88;4984316;28;20046;-61
2022/11/01 04:30:53;;;;;;;6.22;2.58;;;14.40;99.90;;;14.05;100.00;97308.44;4971641;28;20116;-61
2022/11/01 04:33:19;;;;;;;5.20;2.05;;;14.40;99.90;;;14.09;100.00;97311.78;4969343;28;20034;-61
2022/11/01 04:35:45;;;;;;;11.43;2.90;;;14.40;99.90;;;14.07;100.00;97313.66;4967184;28;20116;-61
2022/11/01 04:38:12;;;;;;;6.63;2.75;;;14.50;99.90;;;14.11;100.00;97312.56;4967257;28;20038;-62
2022/11/01 04:40:39;;;;;;;8.70;3.10;;;14.40;99.90;;;14.12;100.00;97314.25;4970397;28;20030;-61
2022/11/01 04:43:05;;;;;;;4.72;2.05;;;14.50;99.90;;;14.18;100.00;97321.06;4971263;28;20034;-61
2022/11/01 04:45:31;;;;;;;5.50;2.78;;;14.50;99.90;;;14.18;100.00;97324.56;4965191;28;20065;-61
2022/11/01 04:48:15;;;;;;;7.10;2.45;;;14.50;99.90;;;14.21;100.00;97324.41;4964039;28;20128;-61
2022/11/01 04:50:42;;;;;;;6.25;2.40;;;14.60;99.90;;;14.17;100.00;97333.44;4968510;28;20161;-61
2022/11/01 04:53:09;;;;;;;8.82;2.83;;;14.60;99.90;;;14.19;100.00;97343.97;4970880;28;20080;-61
2022/11/01 04:55:35;;;;;;;8.30;2.45;;;14.50;99.90;;;14.17;100.00;97354.66;4965436;28;20311;-61
2022/11/01 04:58:01;;;;;;;6.88;2.25;;;14.50;99.90;;;14.13;100.00;97342.50;4971952;28;20362;-61
2022/11/01 05:00:26;;;;;;;14.73;2.72;;;14.50;99.90;;;14.09;100.00;97359.53;4968580;28;20041;-61
2022/11/01 05:03:04;;;;;;;8.70;2.80;;;14.50;99.90;;;14.07;100.00;97350.78;4967784;28;20077;-61
2022/11/01 05:05:30;;;;;;;8.70;2.42;;;14.40;99.90;;;14.06;100.00;97357.03;4965914;28;20023;-61
2022/11/01 05:08:08;;;;;;;10.40;2.67;;;14.40;99.90;;;14.09;100.00;97368.31;4966675;28;20077;-61
2022/11/01 05:10:37;;;;;;;5.15;2.58;;;14.40;99.90;;;14.10;100.00;97371.81;4968453;28;20066;-61
2022/11/01 05:13:04;;;;;;;9.82;2.67;;;14.40;99.90;;;14.05;100.00;97377.38;4967522;28;20042;-61
2022/11/01 05:15:30;;;;;;;8.85;2.35;;;14.40;99.90;;;14.07;100.00;97391.41;4970082;28;20042;-61
2022/11/01 05:17:58;;;;;;;7.60;2.67;;;14.40;99.90;;;14.12;100.00;97393.81;4964349;28;20491;-62
2022/11/01 05:20:24;;;;;;;7.10;2.47;;;14.40;99.90;;;14.14;100.00;97397.28;4969372;28;20121;-61
2022/11/01 05:22:50;;;;;;;5.25;2.15;;;14.50;99.90;;;14.20;100.00;97393.44;4970956;28;20035;-61
2022/11/01 05:25:16;;;;;;;4.30;1.90;;;14.50;99.90;;;14.24;100.00;97387.88;4970612;28;20125;-61
2022/11/01 05:27:43;;;;;;;4.55;2.00;;;14.60;99.90;;;14.27;100.00;97385.09;4963746;28;20148;-61
2022/11/01 05:30:09;;;;;;;6.88;1.88;;;14.60;99.90;;;14.28;100.00;97383.28;4981153;28;20038;-61
2022/11/01 05:32:36;;;;;;;3.20;1.33;;;14.60;99.90;;;14.31;100.00;97376.00;4972510;28;20169;-61
2022/11/01 05:35:03;;;;;;;2.47;1.40;;;14.60;99.90;;;14.31;100.00;97368.06;4969842;28;20035;-61
2022/11/01 05:37:29;;;;;;;4.55;1.58;;;14.60;99.90;;;14.31;100.00;97368.06;4965307;28;20030;-61
2022/11/01 05:39:55;;;;;;;5.65;1.60;;;14.70;99.90;;;14.29;100.00;97369.09;4967012;28;20456;-61
2022/11/01 05:42:21;;;;;;;7.53;2.25;;;14.60;99.90;;;14.25;100.00;97376.34;4969502;28;20026;-61
2022/11/01 05:44:46;;;;;;;2.15;1.45;;;14.60;99.90;;;14.20;100.00;97373.06;4970868;28;20022;-61
2022/11/01 05:47:12;;;;;;;6.75;1.70;;;14.50;99.90;;;14.14;100.00;97370.75;4963803;28;20526;-61
2022/11/01 05:49:38;;;;;;;4.68;1.40;;;14.50;99.90;;;14.11;100.00;97365.59;4967073;28;20034;-62
2022/11/01 05:52:03;;;;;;;2.55;1.38;;;14.40;99.90;;;14.08;100.00;97382.50;4965560;28;22070;-61
2022/11/01 05:54:29;;;;;;;3.45;1.55;;;14.40;99.90;;;14.04;100.00;97380.09;4966073;28;20085;-61
2022/11/01 05:56:55;;;;;;;3.42;1.70;;;14.40;99.90;;;14.00;100.00;97397.09;4980326;28;20284;-61
2022/11/01 05:59:20;;;;;;;4.50;1.58;;;14.30;99.90;;;13.93;100.00;97370.91;4974196;28;20042;-61
2022/11/01 06:01:46;;;;;;;3.28;1.48;;;14.30;99.90;;;13.92;100.00;97377.13;4968193;28;20038;-61
2022/11/01 06:04:12;;;;;;;3.50;1.30;;;14.30;99.90;;;13.89;100.00;97385.25;4969885;28;20066;-60
2022/11/01 06:06:37;;;;;;;4.07;1.60;;;14.20;99.90;;;13.85;100.00;97386.31;5013005;23;20405;-47
2022/11/01 06:09:03;;;;;;;3.30;1.38;;;14.20;99.90;;;13.79;100.00;97381.34;5003725;28;20045;-48
2022/11/01 06:11:29;;;;;;;3.03;1.30;;;14.20;99.90;;;13.73;100.00;97393.13;5003474;28;20037;-46
2022/11/01 06:13:58;;;;;;;4.72;1.25;;;14.10;99.90;;;13.69;100.00;97399.50;4999710;28;20513;-45
2022/11/01 06:16:25;;;;;;;1.40;1.15;;;14.10;99.90;;;13.61;100.00;97384.91;5004497;28;20112;-45
2022/11/01 06:18:51;;;;;;;2.50;1.20;;;14.00;99.90;;;13.59;100.00;97392.94;4998031;28;20025;-48
2022/11/01 06:21:17;;;;;;;3.47;1.10;;;13.90;99.90;;;13.56;100.00;97388.63;5001736;28;20711;-46
2022/11/01 06:23:51;;;;;;;5.63;1.83;;;13.90;99.90;;;13.52;100.00;97380.94;5004925;28;20095;-45
2022/11/01 06:26:18;;;;;;;2.70;1.70;;;13.90;99.90;;;13.49;100.00;97389.88;5001963;28;20037;-46
2022/11/01 06:28:45;;;;;;;3.15;1.27;;;13.90;99.90;;;13.46;100.00;97387.38;5003706;28;20488;-46
2022/11/01 06:31:11;;;;;;;3.83;1.20;;;13.90;99.90;;;13.47;100.00;97390.88;5003231;28;20130;-49
2022/11/01 06:33:37;;;;;;;2.88;1.23;;;13.90;99.90;;;13.46;100.00;97376.78;5000019;28;20329;-45
2022/11/01 06:36:04;;;;;;;1.90;1.42;;;13.80;99.90;;;13.48;100.00;97396.13;5002843;28;20392;-58
2022/11/01 06:38:30;;;;;;;5.07;2.08;;;13.80;99.90;;;13.50;100.00;97396.91;5005404;28;20029;-46
2022/11/01 06:40:56;;;;;;;2.15;1.15;;;13.90;99.90;;;13.49;100.00;97394.31;5003233;28;20542;-50
2022/11/01 06:43:21;;;;;;;1.73;1.00;;;13.90;99.90;;;13.53;100.00;97402.06;5004041;28;20512;-50
2022/11/01 06:45:47;;;;;;;1.75;0.90;;;13.90;99.90;;;13.54;100.00;97430.25;5004453;28;20056;-50
2022/11/01 06:48:13;;;;;;;1.98;0.93;;;13.90;99.90;;;13.54;100.00;97450.59;5006428;28;20393;-49
2022/11/01 06:50:39;;;;;;;3.67;1.08;;;13.90;99.90;;;13.55;100.00;97457.63;5007751;28;20072;-46
2022/11/01 06:53:04;;;;;;;1.92;0.95;;;13.90;99.90;;;13.54;100.00;97454.09;5006726;28;20508;-47
2022/11/01 06:55:30;;;;;;;4.35;1.10;;;13.90;99.90;;;13.51;100.00;97448.09;5002265;28;20037;-50
2022/11/01 06:57:58;;;;;;;1.75;1.00;;;13.90;99.90;;;13.54;100.00;97461.19;5008229;28;20241;-47
2022/11/01 07:00:27;;;;;;;1.63;1.02;;;13.90;99.90;;;13.55;100.00;97461.13;4993898;28;20259;-50
2022/11/01 07:03:08;;;;;;;3.65;1.10;;;13.90;99.90;;;13.54;100.00;97463.84;5006741;28;20096;-47
2022/11/01 07:05:36;;;;;;;0.70;0.70;;;13.90;99.90;;;13.59;100.00;97458.34;5003556;28;20022;-49
2022/11/01 07:08:07;;;;;;;2.53;1.10;;;14.00;99.90;;;13.60;100.00;97463.53;5006304;28;20037;-46
2022/11/01 07:10:32;;;;;;;1.67;0.80;;;14.00;99.90;;;13.62;100.00;97456.41;5002164;28;20072;-49
2022/11/01 07:13:00;;;;;;;1.70;0.68;;;14.00;99.90;;;13.64;100.00;97461.59;5008032;28;20044;-51
2022/11/01 07:15:27;;;;;;;1.05;0.68;;;14.00;99.90;;;13.66;100.00;97460.59;5000274;28;20048;-47
2022/11/01 07:18:02;;;;;;;3.10;0.82;;;14.00;99.90;;;13.70;100.00;97462.16;5008596;28;20029;-47
2022/11/01 07:20:30;;;;;;;1.08;0.60;;;14.10;99.90;;;13.73;100.00;97456.72;5002127;28;21312;-49
2022/11/01 07:23:00;;;;;;;1.10;0.60;;;14.10;99.90;;;13.75;100.00;97451.34;5001717;28;20033;-48
2022/11/01 07:25:27;;;;;;;1.55;0.60;;;14.10;99.90;;;13.82;100.00;97463.38;5007501;28;20250;-48
2022/11/01 07:27:54;;;;;;;0.93;0.60;;;14.20;99.90;;;13.87;100.00;97464.00;5008484;28;20037;-50
2022/11/01 07:30:20;;;;;;;0.70;0.52;;;14.20;99.90;;;13.91;100.00;97460.25;5005518;28;20112;-49
2022/11/01 07:32:46;;;;;;;0.60;0.60;;;14.30;99.90;;;13.97;100.00;97460.91;5009582;28;20497;-47
2022/11/01 07:35:12;;;;;;;1.25;0.70;;;14.30;99.90;;;13.90;100.00;97458.53;5008795;28;20026;-47
2022/11/01 07:37:38;;;;;;;1.05;0.52;;;14.40;99.90;;;14.07;100.00;97472.78;5007486;28;20420;-48
2022/11/01 07:40:05;;;;;;;0.80;0.50;;;14.40;99.90;;;14.09;100.00;97469.09;5016401;28;20083;-46
2022/11/01 07:42:31;;;;;;;1.05;0.45;;;14.50;99.90;;;14.11;100.00;97475.19;5017014;28;20564;-49
2022/11/01 07:44:57;;;;;;;0.88;0.60;;;14.50;99.90;;;14.18;100.00;97466.94;5014062;28;20060;-50
2022/11/01 07:47:22;;;;;;;0.85;0.60;;;14.50;99.90;;;14.24;100.00;97478.06;5014778;28;20044;-47
2022/11/01 07:49:49;;;;;;;0.60;0.50;;;14.60;99.90;;;14.29;100.00;97476.03;5015316;28;20033;-50
2022/11/01 07:52:14;;;;;;;0.73;0.60;;;14.70;99.90;;;14.37;100.00;97480.09;5014612;28;20040;-49
2022/11/01 07:54:40;;;;;;;1.05;0.47;;;14.70;99.90;;;14.29;100.00;97460.13;5012399;28;20025;-46
2022/11/01 07:57:06;;;;;;;1.42;0.40;;;14.80;99.90;;;14.46;100.00;97484.94;5013556;28;20041;-47
2022/11/01 07:59:32;;;;;;;0.60;0.50;;;14.80;99.90;;;14.51;100.00;97491.72;5006776;28;20507;-46
2022/11/01 08:01:58;;;;;;;0.50;0.50;;;14.90;99.90;;;14.53;100.00;97486.34;5013317;28;20098;-53
2022/11/01 08:04:23;;;;;;;0.80;0.50;;;14.90;99.90;;;14.63;100.00;97500.03;5017008;28;20028;-52
2022/11/01 08:06:49;;;;;;;0.57;0.50;;;15.00;99.90;;;14.69;100.00;97510.31;5018506;28;20489;-51
2022/11/01 08:09:15;;;;;;;1.17;0.45;;;15.10;99.90;;;14.75;100.00;97518.00;5015895;28;20044;-50
2022/11/01 08:11:40;;;;;;;0.93;0.70;;;15.10;99.90;;;14.79;100.00;97516.03;5018651;28;20032;-50
2022/11/01 08:14:06;;;;;;;0.80;0.70;;;15.20;99.90;;;14.91;100.00;97523.34;5015149;28;20057;-52
2022/11/01 08:16:32;;;;;;;1.00;0.65;;;15.30;99.90;;;14.99;100.00;97534.41;5007304;28;20029;-48
2022/11/01 08:18:57;;;;;;;1.48;0.77;;;15.30;99.90;;;15.06;100.00;97530.50;5011376;28;20547;-52
2022/11/01 08:21:23;;;;;;;1.98;1.20;;;15.40;99.90;;;15.12;100.00;97529.31;5017343;28;20040;-52
2022/11/01 08:23:49;;;;;;;1.83;1.10;;;15.40;99.90;;;15.18;100.00;97531.66;5010039;28;20052;-53
2022/11/01 08:26:15;;;;;;;1.75;1.15;;;15.50;99.90;;;15.26;100.00;97541.88;5014569;28;20495;-49
2022/11/01 08:28:41;;;;;;;2.33;0.82;;;15.60;99.90;;;15.24;100.00;97533.13;5011650;28;20496;-52
2022/11/01 08:31:09;;;;;;;1.10;0.70;;;15.60;99.90;;;15.36;100.00;97556.38;5007977;28;20029;-51
2022/11/01 08:33:34;;;;;;;0.82;0.63;;;15.70;99.90;;;15.39;100.00;97547.38;5015268;28;20022;-50
2022/11/01 08:36:00;;;;;;;1.02;0.80;;;15.70;99.90;;;15.47;100.00;97558.47;5008511;28;20037;-52
2022/11/01 08:38:26;;;;;;;3.35;0.70;;;15.80;99.90;;;15.49;100.00;97558.34;5017326;28;20028;-52
2022/11/01 08:40:53;;;;;;;1.75;0.60;;;15.80;99.90;;;15.53;100.00;97559.94;5004674;28;20049;-49
2022/11/01 08:43:19;;;;;;;0.52;0.50;;;15.90;99.90;;;15.52;100.00;97558.19;5014297;28;20029;-52
2022/11/01 08:45:46;;;;;;;0.73;0.50;;;15.90;99.90;;;15.53;100.00;97552.81;5008305;28;20333;-51
2022/11/01 08:48:12;;;;;;;2.10;0.70;;;15.90;99.90;;;15.54;100.00;97559.84;5012304;28;20025;-52
2022/11/01 08:50:38;;;;;;;2.20;0.70;;;15.90;99.90;;;15.57;100.00;97557.00;5013982;28;20362;-52
2022/11/01 08:53:12;;;;;;;0.85;0.47;;;15.90;99.90;;;15.61;100.00;97560.34;5010598;28;20123;-51
2022/11/01 08:55:39;;;;;;;0.60;0.50;;;16.00;99.90;;;15.69;100.00;97560.81;5009725;28;20072;-50
2022/11/01 08:58:05;;;;;;;1.63;0.43;;;16.10;99.90;;;15.75;100.00;97557.81;5006232;28;20140;-51
2022/11/01 09:00:31;;;;;;;0.85;0.50;;;16.10;99.90;;;15.82;100.00;97559.19;5011320;28;20465;-52
2022/11/01 09:02:57;;;;;;;0.80;0.50;;;16.20;99.90;;;15.88;100.00;97560.69;5006556;28;20144;-50
2022/11/01 09:05:22;;;;;;;1.15;0.55;;;16.20;99.90;;;15.93;100.00;97557.75;5013119;28;20047;-50
2022/11/01 09:07:48;;;;;;;3.20;0.50;;;16.30;99.90;;;15.89;100.00;97565.03;5015723;28;20061;-52
2022/11/01 09:10:15;;;;;;;0.63;0.47;;;16.30;99.90;;;15.88;100.00;97566.00;5015249;28;20216;-51
2022/11/01 09:12:41;;;;;;;0.55;0.50;;;16.20;99.90;;;15.79;100.00;97567.38;5010773;28;20067;-52
2022/11/01 09:15:07;;;;;;;1.30;0.70;;;16.20;99.90;;;15.73;100.00;97569.47;5012044;28;20328;-52
2022/11/01 09:17:34;;;;;;;0.52;0.52;;;16.10;99.90;;;15.68;100.00;97575.03;5005681;28;20048;-52
2022/11/01 09:20:00;;;;;;;0.95;0.60;;;16.10;99.90;;;15.59;100.00;97551.59;5007059;28;20037;-52
2022/11/01 09:22:26;;;;;;;0.73;0.60;;;16.10;99.90;;;15.67;100.00;97557.38;5010431;28;20041;-48
2022/11/01 09:24:54;;;;;;;0.73;0.52;;;16.20;99.90;;;15.95;100.00;97580.69;5011067;28;20022;-50
2022/11/01 09:27:20;;;;;;;1.02;0.68;;;16.30;99.90;;;16.01;100.00;97582.13;5005914;28;20652;-49
2022/11/01 09:29:45;;;;;;;0.52;0.50;;;16.30;99.90;;;16.10;100.00;97583.41;5011717;28;20033;-50
2022/11/01 09:32:11;;;;;;;1.55;0.60;;;16.40;99.90;;;16.11;100.00;97575.31;5011855;28;20413;-50
2022/11/01 09:34:36;;;;;;;1.13;0.70;;;16.50;99.90;;;16.22;100.00;97580.91;5002811;28;20044;-52
2022/11/01 09:37:03;;;;;;;2.33;0.77;;;16.60;99.90;;;16.29;100.00;97578.75;5001914;28;20489;-52
2022/11/01 09:39:29;;;;;;;0.65;0.50;;;16.70;99.90;;;16.42;100.00;97576.25;5008435;28;20026;-50
2022/11/01 09:42:28;;;;;;;1.05;0.68;;;16.80;99.90;;;16.55;100.00;97573.75;4998512;28;20037;-53
2022/11/01 09:44:56;;;;;;;2.05;0.85;;;16.90;99.90;;;16.66;100.00;97573.09;5001847;28;20051;-46
2022/11/01 09:47:27;;;;;;;1.13;0.50;;;17.00;99.90;;;16.83;100.00;97580.97;5008999;28;20575;-54
2022/11/01 09:50:29;;;;;;;1.50;0.70;;;17.20;99.90;;;17.02;100.00;97571.91;5012281;28;20029;-50
2022/11/01 09:52:56;;;;;;;0.85;0.55;;;17.40;99.90;;;17.09;100.00;97575.91;4993506;28;20042;-52
2022/11/01 09:55:50;;;;;;;0.93;0.60;;;17.50;99.90;;;17.28;100.00;97587.16;4995016;28;20042;-51
2022/11/01 09:58:52;;;;;;;1.05;0.60;;;17.70;99.90;;;17.46;100.00;97579.84;4980498;28;20072;-52
2022/11/01 10:01:55;;;;;;;0.90;0.50;;;17.90;99.90;;;17.68;100.00;97587.34;5004583;28;20033;-52
2022/11/01 10:05:01;;;;;;;1.45;0.60;;;18.10;99.90;;;17.64;100.00;97583.16;5001498;28;20038;-51
2022/11/01 10:07:52;;;;;;;1.17;0.60;;;18.20;99.90;;;17.88;100.00;97595.94;5004105;28;20029;-47
2022/11/01 10:10:38;;;;;;;0.93;0.50;;;18.30;99.90;;;17.94;98.38;97595.53;4989454;28;20041;-50
2022/11/01 10:13:22;;;;;;;1.35;0.68;;;18.40;99.90;;;17.98;97.93;97597.09;5005461;28;20055;-49
2022/11/01 10:16:11;;;;;;;2.40;0.70;;;18.40;99.90;;;18.04;96.78;97591.34;4986365;28;20041;-48
2022/11/01 10:18:58;;;;;;;1.38;0.60;;;18.40;99.90;;;17.98;99.15;97590.88;5011430;28;20512;-41
2022/11/01 10:21:26;;;;;;;1.08;0.63;;;18.40;99.90;;;17.89;98.02;97593.19;5001302;28;20018;-41
2022/11/01 10:23:55;;;;;;;2.13;0.70;;;18.30;99.90;;;17.88;98.05;97594.13;5003955;28;20021;-50
2022/11/01 10:26:30;;;;;;;3.42;0.52;;;18.30;99.90;;;17.83;97.87;97595.34;5003947;28;20294;-49
2022/11/01 10:29:16;;;;;;;0.85;0.50;;;18.20;99.90;;;17.82;98.49;97605.16;4988020;28;20155;-53
2022/11/01 10:31:47;;;;;;;1.10;0.82;;;18.20;99.90;;;17.68;97.84;97583.84;4987012;28;20877;-48
2022/11/01 10:34:31;;;;;;;3.40;0.50;;;18.30;99.90;;;17.73;93.55;97593.25;4998684;28;20438;-53
2022/11/01 10:37:26;;;;;;;1.75;0.70;;;18.20;99.90;;;17.76;94.79;97597.53;4988275;28;20350;-48
2022/11/01 10:40:01;;;;;;;0.60;0.52;;;18.20;99.90;;;17.81;95.96;97594.59;4995739;28;20040;-48